createdAt,value
2022-09-02T00:04:47.832Z,14.20
2022-09-02T00:09:49.948Z,14.20
2022-09-02T00:14:51.736Z,14.20
2022-09-02T00:19:56.221Z,14.30
2022-09-02T00:24:58.214Z,14.40
2022-09-02T00:30:00.029Z,14.40
2022-09-02T00:35:02.022Z,14.50
2022-09-02T00:40:06.538Z,14.50
2022-09-02T00:45:09.844Z,14.50
2022-09-02T00:50:14.901Z,14.50
2022-09-02T00:55:20.290Z,14.50
2022-09-02T01:00:25.077Z,14.60
2022-09-02T01:05:40.664Z,14.60
2022-09-02T01:10:47.006Z,14.60
2022-09-02T01:16:14.713Z,14.60
2022-09-02T01:21:17.615Z,14.60
2022-09-02T01:26:20.063Z,14.70
2022-09-02T01:31:21.928Z,14.70
2022-09-02T01:36:23.894Z,14.80
2022-09-02T01:41:25.731Z,14.70
2022-09-02T01:46:27.783Z,14.60
2022-09-02T01:51:29.762Z,14.60
2022-09-02T01:56:31.652Z,14.60
2022-09-02T02:01:35.961Z,14.60
2022-09-02T02:06:48.212Z,14.50
2022-09-02T02:11:54.710Z,14.50
2022-09-02T02:16:57.132Z,14.50
2022-09-02T02:21:59.160Z,14.40
2022-09-02T02:27:01.989Z,14.50
2022-09-02T02:32:07.481Z,14.40
2022-09-02T02:37:12.236Z,14.50
2022-09-02T02:42:14.166Z,14.50
2022-09-02T02:47:17.463Z,14.50
2022-09-02T02:52:19.545Z,14.30
2022-09-02T02:57:21.502Z,14.20
2022-09-02T03:02:23.684Z,14.10
2022-09-02T03:07:25.625Z,14.00
2022-09-02T03:12:27.696Z,13.90
2022-09-02T03:17:30.307Z,13.80
2022-09-02T03:22:32.175Z,13.70
2022-09-02T03:27:34.586Z,13.60
2022-09-02T03:32:38.038Z,13.60
2022-09-02T03:37:40.743Z,13.50
2022-09-02T03:42:43.116Z,13.40
2022-09-02T03:47:54.205Z,13.40
2022-09-02T03:53:00.937Z,13.30
2022-09-02T03:58:08.440Z,13.30
2022-09-02T04:03:12.422Z,13.20
2022-09-02T04:08:14.470Z,13.10
2022-09-02T04:13:16.912Z,13.10
2022-09-02T04:18:18.921Z,13.10
2022-09-02T04:23:20.777Z,13.10
2022-09-02T04:28:23.944Z,13.20
2022-09-02T04:33:25.840Z,13.20
2022-09-02T04:38:28.716Z,13.20
2022-09-02T04:43:31.953Z,13.30
2022-09-02T04:48:36.721Z,13.30
2022-09-02T04:53:40.157Z,13.20
2022-09-02T04:58:44.434Z,13.20
2022-09-02T05:03:48.109Z,13.20
2022-09-02T05:08:50.773Z,13.20
2022-09-02T05:13:52.723Z,13.30
2022-09-02T05:18:57.497Z,13.30
2022-09-02T05:24:02.697Z,13.50
2022-09-02T05:29:07.088Z,13.50
2022-09-02T05:34:09.435Z,13.60
2022-09-02T05:39:11.594Z,13.60
2022-09-02T05:44:14.126Z,13.60
2022-09-02T05:49:21.351Z,13.70
2022-09-02T05:54:32.584Z,13.80
2022-09-02T05:59:40.025Z,13.80
2022-09-02T06:04:46.390Z,13.90
2022-09-02T06:09:48.978Z,14.10
2022-09-02T06:14:51.533Z,14.30
2022-09-02T06:19:55.876Z,14.40
2022-09-02T06:25:01.130Z,14.50
2022-09-02T06:30:04.017Z,14.50
2022-09-02T06:35:08.681Z,14.60
2022-09-02T06:40:12.127Z,14.80
2022-09-02T06:45:15.101Z,14.90
2022-09-02T06:50:19.691Z,15.00
2022-09-02T06:55:21.515Z,15.20
2022-09-02T07:00:23.413Z,15.30
2022-09-02T07:05:25.582Z,15.30
2022-09-02T07:10:28.619Z,15.50
2022-09-02T07:15:32.344Z,15.60
2022-09-02T07:20:34.790Z,15.90
2022-09-02T07:25:41.604Z,16.10
2022-09-02T07:30:45.587Z,16.10
2022-09-02T07:35:53.104Z,16.30
2022-09-02T07:40:56.962Z,16.50
2022-09-02T07:46:01.234Z,16.70
2022-09-02T07:51:04.593Z,16.80
2022-09-02T07:56:07.148Z,17.00
2022-09-02T08:01:09.752Z,17.20
2022-09-02T08:06:13.848Z,17.30
2022-09-02T08:11:15.706Z,17.50
2022-09-02T08:16:17.717Z,17.50
2022-09-02T08:21:19.497Z,17.50
2022-09-02T08:26:21.591Z,17.50
2022-09-02T08:31:26.192Z,17.60
2022-09-02T08:36:28.301Z,17.80
2022-09-02T08:47:13.073Z,18.30
2022-09-02T08:52:37.094Z,18.40
2022-09-02T08:57:44.290Z,18.60
2022-09-02T09:02:56.773Z,18.70
2022-09-02T09:08:21.623Z,19.00
2022-09-02T09:14:05.952Z,19.10
2022-09-02T09:19:19.650Z,19.30
2022-09-02T09:24:45.888Z,19.50
2022-09-02T09:29:49.873Z,19.70
2022-09-02T09:35:01.535Z,19.80
2022-09-02T09:40:30.400Z,19.80
2022-09-02T09:45:37.884Z,19.90
2022-09-02T09:50:42.161Z,20.00
2022-09-02T09:56:06.611Z,20.00
2022-09-02T10:01:17.764Z,20.00
2022-09-02T10:06:32.003Z,20.20
2022-09-02T10:11:36.624Z,20.40
2022-09-02T10:16:42.996Z,20.60
2022-09-02T10:22:04.184Z,20.70
2022-09-02T10:27:09.192Z,20.60
2022-09-02T10:32:44.002Z,20.70
2022-09-02T10:38:12.319Z,20.70
2022-09-02T10:43:41.440Z,20.60
2022-09-02T10:49:04.673Z,20.80
2022-09-02T10:54:18.584Z,21.00
2022-09-02T10:59:33.190Z,21.30
2022-09-02T11:04:46.315Z,21.40
2022-09-02T11:09:56.248Z,21.50
2022-09-02T11:15:17.789Z,21.30
2022-09-02T11:20:30.348Z,21.30
2022-09-02T11:25:39.056Z,21.50
2022-09-02T11:30:55.862Z,21.90
2022-09-02T11:35:59.241Z,22.20
2022-09-02T11:41:35.835Z,22.20
2022-09-02T11:46:55.012Z,21.90
2022-09-02T11:52:06.503Z,21.90
2022-09-02T11:57:14.556Z,21.90
2022-09-02T12:02:37.550Z,22.00
2022-09-02T12:07:50.046Z,22.00
2022-09-02T12:12:59.308Z,22.10
2022-09-02T12:18:14.506Z,21.90
2022-09-02T12:23:56.744Z,22.10
2022-09-02T12:29:18.341Z,22.60
2022-09-02T12:34:20.456Z,22.80
2022-09-02T12:39:25.587Z,22.80
2022-09-02T12:45:06.490Z,22.70
2022-09-02T12:50:22.857Z,22.70
2022-09-02T12:55:31.271Z,22.70
2022-09-02T13:01:14.110Z,22.80
2022-09-02T13:06:51.934Z,22.90
2022-09-02T13:12:05.305Z,22.70
2022-09-02T13:17:25.890Z,22.70
2022-09-02T13:23:02.423Z,23.20
2022-09-02T13:28:07.470Z,23.60
2022-09-02T13:33:12.482Z,24.40
2022-09-02T13:38:16.475Z,24.70
2022-09-02T13:43:22.640Z,23.70
2022-09-02T13:48:32.354Z,23.50
2022-09-02T13:53:45.596Z,23.30
2022-09-02T13:59:01.363Z,23.40
2022-09-02T14:04:15.593Z,24.20
2022-09-02T14:09:25.739Z,24.90
2022-09-02T14:14:28.425Z,25.50
2022-09-02T14:19:30.205Z,25.10
2022-09-02T14:24:40.097Z,27.00
2022-09-02T14:29:44.916Z,26.10
2022-09-02T14:34:50.272Z,27.50
2022-09-02T14:40:12.240Z,28.90
2022-09-02T14:45:15.403Z,26.60
2022-09-02T14:50:22.225Z,25.60
2022-09-02T14:55:44.613Z,26.50
2022-09-02T15:00:52.328Z,25.50
2022-09-02T15:05:54.559Z,24.00
2022-09-02T15:10:59.412Z,23.80
2022-09-02T15:16:02.856Z,23.90
2022-09-02T15:21:05.310Z,23.90
2022-09-02T15:26:08.641Z,23.60
2022-09-02T15:31:10.472Z,23.50
2022-09-02T15:36:13.856Z,23.70
2022-09-02T15:41:27.245Z,23.50
2022-09-02T15:46:31.464Z,22.90
2022-09-02T15:51:34.404Z,22.90
2022-09-02T15:56:39.377Z,22.80
2022-09-02T16:01:44.302Z,22.90
2022-09-02T16:06:49.001Z,22.70
2022-09-02T16:11:53.657Z,22.30
2022-09-02T16:16:55.936Z,22.40
2022-09-02T16:21:57.920Z,22.20
2022-09-02T16:26:59.764Z,21.90
2022-09-02T16:32:23.637Z,21.70
2022-09-02T16:37:23.281Z,21.50
2022-09-02T16:42:25.987Z,21.30
2022-09-02T16:47:27.795Z,21.20
2022-09-02T16:52:32.154Z,21.10
2022-09-02T16:57:33.945Z,21.00
2022-09-02T17:02:35.828Z,20.90
2022-09-02T17:07:37.632Z,20.80
2022-09-02T17:12:42.790Z,20.60
2022-09-02T17:17:45.035Z,20.40
2022-09-02T17:22:47.034Z,20.10
2022-09-02T17:27:49.015Z,20.00
2022-09-02T17:32:56.210Z,19.90
2022-09-02T17:37:58.449Z,19.80
2022-09-02T17:43:00.435Z,19.70
2022-09-02T17:48:31.848Z,19.50
2022-09-02T17:53:24.895Z,19.40
2022-09-02T17:58:31.833Z,19.30
2022-09-02T18:03:54.327Z,19.20
2022-09-02T18:09:02.297Z,19.00
2022-09-02T18:14:09.776Z,18.90
2022-09-02T18:19:34.401Z,18.80
2022-09-02T18:25:08.336Z,18.70
2022-09-02T18:30:14.778Z,18.60
2022-09-02T18:35:21.779Z,18.40
2022-09-02T18:40:36.857Z,18.30
2022-09-02T18:45:50.248Z,18.20
2022-09-02T18:51:35.027Z,18.10
2022-09-02T18:56:44.565Z,18.00
2022-09-02T19:01:57.094Z,17.90
2022-09-02T19:07:19.768Z,17.80
2022-09-02T19:12:22.885Z,17.70
2022-09-02T19:17:24.622Z,17.60
2022-09-02T19:22:28.847Z,17.50
2022-09-02T19:27:42.736Z,17.50
2022-09-02T19:32:48.019Z,17.40
2022-09-02T19:37:53.216Z,17.30
2022-09-02T19:42:55.657Z,17.20
2022-09-02T19:48:07.073Z,17.10
2022-09-02T19:53:18.231Z,17.10
2022-09-02T19:58:20.236Z,16.90
2022-09-02T20:03:22.186Z,16.90
2022-09-02T20:08:31.187Z,16.80
2022-09-02T20:13:41.061Z,16.80
2022-09-02T20:18:48.344Z,16.70
2022-09-02T20:23:52.778Z,16.60
2022-09-02T20:29:25.134Z,16.50
2022-09-02T20:34:55.990Z,16.50
2022-09-02T20:40:36.248Z,16.40
2022-09-02T20:45:53.697Z,16.30
2022-09-02T20:51:29.440Z,16.30
2022-09-02T20:56:41.490Z,16.20
2022-09-02T21:01:45.489Z,16.10
2022-09-02T21:06:54.103Z,16.10
2022-09-02T21:12:05.700Z,16.00
2022-09-02T21:17:28.835Z,15.90
2022-09-02T21:22:36.894Z,15.80
2022-09-02T21:28:06.649Z,15.70
2022-09-02T21:33:15.860Z,15.70
2022-09-02T21:38:34.397Z,15.70
2022-09-02T21:44:03.939Z,15.60
2022-09-02T21:49:32.569Z,15.50
2022-09-02T21:54:54.078Z,15.40
2022-09-02T22:00:02.940Z,15.40
2022-09-02T22:05:44.738Z,15.30
2022-09-02T22:11:00.327Z,15.30
2022-09-02T22:16:05.114Z,15.20
2022-09-02T22:21:20.917Z,15.10
2022-09-02T22:26:48.719Z,15.10
2022-09-02T22:31:55.101Z,15.00
2022-09-02T22:37:05.874Z,15.00
2022-09-02T22:42:35.902Z,14.90
2022-09-02T22:47:58.921Z,14.80
2022-09-02T22:53:01.032Z,14.70
2022-09-02T22:58:22.374Z,14.80
2022-09-02T23:03:44.482Z,14.70
2022-09-02T23:08:46.993Z,14.60
2022-09-02T23:14:10.857Z,14.60
2022-09-02T23:19:44.317Z,14.50
2022-09-02T23:24:48.860Z,14.50
2022-09-02T23:29:52.295Z,14.40
2022-09-02T23:35:18.033Z,14.40
2022-09-02T23:40:25.916Z,14.40
2022-09-02T23:45:37.092Z,14.30
2022-09-02T23:50:47.049Z,14.30
2022-09-02T23:56:08.677Z,14.30
